Time;durP1;ratioP1;P1;durP2;ratioP2;P2;SDS_P1;SDS_P2;PMS_P1;PMS_P2;Temp;Humidity;BMP_temperature;BMP_pressure;BME280_temperature;BME280_humidity;BME280_pressure;Samples;Min_cycle;Max_cycle;Signal;HPM_P1;HPM_P2
2023/07/24 00:02:01;;;;;;;9.80;4.22;;;18.00;78.60;;;;;;5051083;28;20563;-78
2023/07/24 00:04:28;;;;;;;9.02;4.10;;;18.00;78.70;;;;;;5050025;28;20049;-78
2023/07/24 00:06:56;;;;;;;9.63;4.22;;;18.00;78.70;;;;;;5051144;28;20136;-78
2023/07/24 00:09:23;;;;;;;10.73;4.47;;;18.00;78.80;;;;;;5049984;28;20048;-78
2023/07/24 00:11:50;;;;;;;9.65;4.03;;;18.00;79.00;;;;;;5047101;28;20292;-78
2023/07/24 00:14:17;;;;;;;10.13;4.43;;;18.00;78.90;;;;;;5080027;28;20135;-79
2023/07/24 00:16:44;;;;;;;9.90;4.43;;;18.00;79.00;;;;;;5049128;28;20061;-78
2023/07/24 00:19:11;;;;;;;12.35;4.68;;;18.00;79.00;;;;;;5033003;28;20675;-78
2023/07/24 00:21:38;;;;;;;11.40;5.10;;;18.00;79.20;;;;;;5049091;28;20515;-78
2023/07/24 00:24:06;;;;;;;11.68;5.68;;;18.00;79.40;;;;;;5049536;28;20686;-78
2023/07/24 00:26:33;;;;;;;9.35;5.15;;;18.00;79.50;;;;;;5049457;28;20560;-78
2023/07/24 00:29:00;;;;;;;12.07;6.00;;;18.00;79.60;;;;;;5049136;28;20174;-78
2023/07/24 00:31:27;;;;;;;12.98;6.22;;;18.00;80.00;;;;;;5047212;28;20133;-78
2023/07/24 00:33:54;;;;;;;12.00;6.97;;;18.00;80.80;;;;;;5049353;28;20551;-78
2023/07/24 00:36:21;;;;;;;11.75;7.22;;;18.00;80.90;;;;;;5048974;28;20281;-78
2023/07/24 00:38:48;;;;;;;11.38;7.43;;;18.00;81.40;;;;;;5024529;28;20046;-78
2023/07/24 00:41:17;;;;;;;12.90;8.50;;;18.00;81.50;;;;;;5062996;28;20045;-78
2023/07/24 00:43:44;;;;;;;12.98;8.63;;;18.00;81.80;;;;;;5065949;28;20049;-78
2023/07/24 00:46:11;;;;;;;12.17;7.67;;;18.00;82.00;;;;;;5048891;28;20530;-78
2023/07/24 00:48:39;;;;;;;12.65;8.40;;;18.00;82.40;;;;;;5032118;28;20268;-78
2023/07/24 00:51:08;;;;;;;11.88;7.32;;;18.00;82.40;;;;;;5039491;28;20054;-78
2023/07/24 00:53:35;;;;;;;12.02;8.20;;;18.00;82.50;;;;;;5032056;28;20056;-78
2023/07/24 00:56:03;;;;;;;13.85;8.88;;;18.00;82.50;;;;;;5024811;28;20412;-78
2023/07/24 00:58:32;;;;;;;11.70;8.33;;;18.00;82.60;;;;;;5064158;28;20050;-78
2023/07/24 01:00:58;;;;;;;13.10;8.57;;;18.00;82.80;;;;;;5060671;28;20277;-78
2023/07/24 01:03:32;;;;;;;13.05;8.68;;;18.00;82.80;;;;;;5049026;28;20523;-78
2023/07/24 01:06:01;;;;;;;12.52;8.60;;;18.00;82.90;;;;;;5060396;28;20584;-78
2023/07/24 01:08:28;;;;;;;12.98;8.15;;;18.00;82.60;;;;;;5021136;28;20124;-78
2023/07/24 01:11:02;;;;;;;12.07;8.23;;;18.00;82.80;;;;;;5048398;28;20053;-78
2023/07/24 01:13:35;;;;;;;13.20;8.13;;;18.00;82.80;;;;;;5032473;28;20271;-78
2023/07/24 01:16:07;;;;;;;10.80;7.35;;;18.00;82.70;;;;;;5031030;28;20141;-78
2023/07/24 01:18:36;;;;;;;11.57;7.55;;;17.90;82.70;;;;;;5048250;28;20065;-78
2023/07/24 01:21:06;;;;;;;13.48;7.85;;;18.00;82.90;;;;;;5039499;28;20049;-78
2023/07/24 01:23:52;;;;;;;11.00;7.00;;;17.90;82.80;;;;;;5048141;28;20077;-78
2023/07/24 01:26:23;;;;;;;11.45;7.35;;;17.90;82.70;;;;;;5049994;28;20378;-78
2023/07/24 01:28:51;;;;;;;10.73;7.18;;;17.80;82.70;;;;;;5028964;28;20046;-78
2023/07/24 01:31:18;;;;;;;10.77;6.80;;;17.80;82.70;;;;;;5047485;28;20053;-78
2023/07/24 01:33:45;;;;;;;9.50;6.38;;;17.80;82.50;;;;;;5048399;28;20089;-78
2023/07/24 01:36:19;;;;;;;12.13;7.50;;;17.80;82.60;;;;;;5026914;28;20080;-78
2023/07/24 01:38:47;;;;;;;11.55;7.22;;;17.80;82.70;;;;;;5048152;28;20257;-78
2023/07/24 01:41:15;;;;;;;9.68;6.40;;;17.80;82.60;;;;;;5024217;28;20050;-78
2023/07/24 01:43:44;;;;;;;10.93;6.60;;;17.80;82.70;;;;;;5029870;28;20504;-78
2023/07/24 01:46:11;;;;;;;11.68;6.80;;;17.80;82.90;;;;;;5049904;28;20173;-78
2023/07/24 01:48:38;;;;;;;9.33;6.03;;;17.80;82.70;;;;;;5048676;28;20085;-78
2023/07/24 01:51:05;;;;;;;9.73;6.22;;;17.80;82.80;;;;;;5048064;28;20273;-78
2023/07/24 01:53:32;;;;;;;11.05;6.20;;;17.80;82.90;;;;;;5065172;28;20569;-78
2023/07/24 01:55:59;;;;;;;10.38;6.35;;;17.80;82.70;;;;;;5026130;28;20815;-78
2023/07/24 01:58:26;;;;;;;10.65;6.32;;;17.80;82.80;;;;;;5064037;28;20041;-78
2023/07/24 02:00:56;;;;;;;10.00;6.73;;;17.80;82.60;;;;;;5026785;28;20045;-78
2023/07/24 02:03:23;;;;;;;11.20;7.30;;;17.80;82.60;;;;;;5044560;28;20878;-78
2023/07/24 02:05:51;;;;;;;9.73;6.50;;;17.80;82.60;;;;;;5065002;28;20133;-78
2023/07/24 02:08:18;;;;;;;10.93;7.10;;;17.80;82.50;;;;;;5065101;28;20045;-78
2023/07/24 02:10:48;;;;;;;10.90;6.88;;;17.80;82.50;;;;;;5031358;28;20145;-78
2023/07/24 02:13:15;;;;;;;10.33;6.87;;;17.80;82.50;;;;;;5081452;28;20126;-78
2023/07/24 02:15:49;;;;;;;11.50;6.85;;;17.80;82.60;;;;;;5066374;28;20300;-78
2023/07/24 02:18:17;;;;;;;11.75;6.93;;;17.80;82.40;;;;;;5067933;28;20045;-78
2023/07/24 02:20:50;;;;;;;10.38;6.72;;;17.80;82.40;;;;;;5066210;28;20060;-78
2023/07/24 02:23:18;;;;;;;11.00;6.60;;;17.80;82.50;;;;;;5065123;28;20046;-78
2023/07/24 02:25:44;;;;;;;11.10;6.70;;;17.70;82.50;;;;;;5051075;28;20137;-78
2023/07/24 02:28:11;;;;;;;10.00;6.35;;;17.70;82.50;;;;;;5067622;28;20693;-78
2023/07/24 02:30:39;;;;;;;10.32;6.72;;;17.70;82.40;;;;;;5034169;28;20052;-78
2023/07/24 02:33:06;;;;;;;9.93;6.60;;;17.70;82.50;;;;;;5052281;28;20049;-78
2023/07/24 02:35:40;;;;;;;9.30;5.70;;;17.70;82.70;;;;;;5051621;28;20064;-78
2023/07/24 02:38:08;;;;;;;11.33;6.60;;;17.70;82.60;;;;;;5034181;28;20304;-78
2023/07/24 02:40:36;;;;;;;10.38;6.70;;;17.60;82.70;;;;;;5047592;28;20261;-78
2023/07/24 02:43:03;;;;;;;9.88;6.40;;;17.70;82.70;;;;;;5031024;28;20575;-78
2023/07/24 02:45:30;;;;;;;10.80;5.93;;;17.60;82.80;;;;;;5032431;28;20048;-78
2023/07/24 02:47:57;;;;;;;9.93;5.85;;;17.60;82.80;;;;;;5032419;28;20049;-78
2023/07/24 02:50:24;;;;;;;10.57;5.90;;;17.60;82.80;;;;;;5078812;28;20049;-78
2023/07/24 02:52:52;;;;;;;10.30;6.18;;;17.60;82.90;;;;;;5030466;28;20367;-77
2023/07/24 02:55:19;;;;;;;9.57;5.78;;;17.60;82.90;;;;;;5032348;28;20145;-78
2023/07/24 02:57:46;;;;;;;10.57;5.85;;;17.60;83.00;;;;;;5048925;28;20466;-78
2023/07/24 03:00:14;;;;;;;9.10;5.72;;;17.60;83.10;;;;;;5050273;28;20057;-78
2023/07/24 03:02:41;;;;;;;9.50;5.50;;;17.60;83.10;;;;;;5050525;28;20049;-78
2023/07/24 03:05:08;;;;;;;10.75;6.55;;;17.60;83.20;;;;;;5045621;28;20256;-78
2023/07/24 03:07:36;;;;;;;11.00;6.32;;;17.60;83.40;;;;;;5064969;28;20050;-78
2023/07/24 03:10:04;;;;;;;10.25;6.47;;;17.60;83.30;;;;;;5033657;28;20149;-78
2023/07/24 03:12:31;;;;;;;11.43;6.45;;;17.50;83.50;;;;;;5033632;28;20538;-78
2023/07/24 03:14:58;;;;;;;10.20;6.10;;;17.50;83.40;;;;;;5049959;28;20056;-78
2023/07/24 03:17:25;;;;;;;11.68;5.97;;;17.50;83.50;;;;;;5033503;28;20437;-78
2023/07/24 03:19:52;;;;;;;12.30;6.70;;;17.50;83.60;;;;;;5051316;28;20054;-78
2023/07/24 03:22:19;;;;;;;10.40;5.70;;;17.50;83.60;;;;;;5066791;28;20073;-78
2023/07/24 03:24:47;;;;;;;10.50;6.10;;;17.50;83.60;;;;;;5048851;28;20049;-78
2023/07/24 03:27:15;;;;;;;9.13;5.40;;;17.50;83.70;;;;;;5049458;28;20058;-78
2023/07/24 03:29:42;;;;;;;9.85;5.97;;;17.50;83.80;;;;;;5049814;28;20360;-78
2023/07/24 03:32:09;;;;;;;10.02;6.13;;;17.50;83.90;;;;;;5032910;28;20600;-78
2023/07/24 03:34:35;;;;;;;10.20;5.72;;;17.50;83.90;;;;;;5084040;28;20551;-78
2023/07/24 03:37:02;;;;;;;10.60;6.00;;;17.40;83.90;;;;;;5033215;28;20056;-78
2023/07/24 03:39:30;;;;;;;9.23;5.63;;;17.40;84.00;;;;;;5049715;28;20476;-78
2023/07/24 03:41:57;;;;;;;9.75;6.13;;;17.40;84.00;;;;;;5028117;28;20690;-77
2023/07/24 03:44:25;;;;;;;8.88;5.47;;;17.40;84.00;;;;;;5066591;28;20065;-78
2023/07/24 03:46:52;;;;;;;9.25;5.60;;;17.40;84.00;;;;;;5045353;28;20056;-78
2023/07/24 03:49:19;;;;;;;10.10;5.70;;;17.40;84.00;;;;;;5049411;28;20049;-78
2023/07/24 03:51:46;;;;;;;11.80;5.93;;;17.40;84.00;;;;;;5057799;28;20137;-78
2023/07/24 03:54:13;;;;;;;9.65;5.63;;;17.40;83.90;;;;;;5032997;28;20265;-78
2023/07/24 03:56:40;;;;;;;10.95;6.10;;;17.40;83.90;;;;;;5050788;28;20107;-78
2023/07/24 03:59:11;;;;;;;10.68;5.72;;;17.40;83.90;;;;;;5049195;28;20064;-78
2023/07/24 04:01:39;;;;;;;10.00;6.22;;;17.40;83.90;;;;;;5050758;28;20161;-78
2023/07/24 04:04:06;;;;;;;9.80;5.93;;;17.40;84.00;;;;;;5049237;28;20058;-78
2023/07/24 04:06:33;;;;;;;9.05;5.53;;;17.40;84.00;;;;;;5050079;28;20390;-78
2023/07/24 04:09:00;;;;;;;9.75;5.85;;;17.40;84.10;;;;;;5046202;28;20064;-78
2023/07/24 04:11:27;;;;;;;12.43;6.20;;;17.40;84.00;;;;;;5051007;28;20584;-78
2023/07/24 04:13:54;;;;;;;9.15;5.78;;;17.40;84.10;;;;;;5051095;28;20152;-78
2023/07/24 04:16:21;;;;;;;9.47;5.93;;;17.40;84.10;;;;;;5051318;28;20136;-78
2023/07/24 04:18:49;;;;;;;12.70;6.18;;;17.40;84.00;;;;;;5050981;28;20285;-78
2023/07/24 04:21:16;;;;;;;12.25;6.15;;;17.40;84.00;;;;;;5050517;28;20053;-78
2023/07/24 04:23:43;;;;;;;10.98;5.90;;;17.40;84.10;;;;;;5049326;28;20060;-78
2023/07/24 04:26:10;;;;;;;10.70;6.93;;;17.40;84.00;;;;;;5051061;28;20049;-78
2023/07/24 04:28:39;;;;;;;11.87;6.23;;;17.40;84.10;;;;;;5041962;28;20512;-78
2023/07/24 04:31:06;;;;;;;11.80;6.80;;;17.40;84.10;;;;;;5050227;28;21012;-78
2023/07/24 04:33:33;;;;;;;9.85;6.15;;;17.40;84.20;;;;;;5047133;28;20144;-78
2023/07/24 04:36:02;;;;;;;10.57;6.35;;;17.30;84.10;;;;;;5050248;28;20046;-78
2023/07/24 04:38:29;;;;;;;10.38;6.68;;;17.30;84.10;;;;;;5047943;28;20058;-78
2023/07/24 04:40:56;;;;;;;10.43;6.10;;;17.30;84.20;;;;;;5047569;28;20050;-78
2023/07/24 04:43:23;;;;;;;10.30;6.70;;;17.30;84.20;;;;;;5047782;28;20335;-78
2023/07/24 04:45:49;;;;;;;10.10;6.15;;;17.30;84.20;;;;;;5048832;28;20057;-78
2023/07/24 04:48:16;;;;;;;12.30;6.93;;;17.30;84.30;;;;;;5046992;28;20049;-78
2023/07/24 04:50:43;;;;;;;9.88;6.13;;;17.30;84.10;;;;;;5046432;28;20048;-78
2023/07/24 04:53:11;;;;;;;11.17;6.90;;;17.30;84.20;;;;;;5047641;28;20057;-77
2023/07/24 04:55:38;;;;;;;10.30;6.68;;;17.30;84.20;;;;;;5046006;28;20668;-77
2023/07/24 04:58:05;;;;;;;10.75;6.90;;;17.30;84.20;;;;;;5045470;28;20079;-77
2023/07/24 05:00:32;;;;;;;10.18;6.28;;;17.30;84.20;;;;;;5081363;28;20145;-77
2023/07/24 05:02:59;;;;;;;11.55;6.45;;;17.30;84.20;;;;;;5047128;28;20107;-76
2023/07/24 05:05:26;;;;;;;10.93;7.07;;;17.30;84.20;;;;;;5048812;28;20454;-77
2023/07/24 05:07:54;;;;;;;10.38;6.60;;;17.30;84.10;;;;;;5043913;28;20267;-77
2023/07/24 05:10:22;;;;;;;11.05;6.90;;;17.30;84.20;;;;;;5043244;28;20516;-77
2023/07/24 05:12:49;;;;;;;10.90;6.68;;;17.30;84.20;;;;;;5039327;28;20128;-77
2023/07/24 05:15:17;;;;;;;10.55;6.55;;;17.30;84.20;;;;;;5046721;28;20597;-77
2023/07/24 05:17:44;;;;;;;11.97;7.07;;;17.30;84.10;;;;;;5068924;28;20401;-78
2023/07/24 05:20:12;;;;;;;11.88;6.65;;;17.30;84.20;;;;;;5084715;28;20272;-78
2023/07/24 05:22:39;;;;;;;12.48;7.55;;;17.30;84.10;;;;;;5047768;28;20133;-78
2023/07/24 05:25:06;;;;;;;11.98;7.40;;;17.30;84.10;;;;;;5049400;28;20053;-78
2023/07/24 05:27:35;;;;;;;11.70;7.75;;;17.30;84.20;;;;;;5048554;28;20054;-78
2023/07/24 05:30:02;;;;;;;12.50;6.90;;;17.30;84.40;;;;;;5041310;28;20057;-78
2023/07/24 05:32:30;;;;;;;11.25;7.28;;;17.30;84.40;;;;;;5047183;28;20539;-77
2023/07/24 05:34:58;;;;;;;11.80;6.95;;;17.40;84.40;;;;;;5053745;28;20053;-77
2023/07/24 05:37:24;;;;;;;11.40;7.10;;;17.40;84.40;;;;;;5054442;28;20068;-77
2023/07/24 05:39:52;;;;;;;12.32;7.15;;;17.40;84.40;;;;;;5051402;28;20053;-77
2023/07/24 05:42:19;;;;;;;13.03;7.53;;;17.40;84.50;;;;;;5046078;28;20076;-78
2023/07/24 05:44:47;;;;;;;11.82;6.85;;;17.40;84.40;;;;;;5030937;28;20276;-78
2023/07/24 05:47:14;;;;;;;12.77;7.82;;;17.40;84.40;;;;;;5047487;28;20064;-77
2023/07/24 05:49:41;;;;;;;12.13;6.97;;;17.40;84.60;;;;;;5026771;28;20060;-78
2023/07/24 05:52:08;;;;;;;11.52;7.15;;;17.40;84.50;;;;;;5043467;28;20050;-78
2023/07/24 05:54:35;;;;;;;10.60;7.17;;;17.40;84.60;;;;;;5045884;28;20044;-78
2023/07/24 05:57:02;;;;;;;13.43;7.47;;;17.40;84.50;;;;;;5045835;28;20821;-78
2023/07/24 05:59:29;;;;;;;11.77;7.60;;;17.40;84.60;;;;;;5047036;28;20605;-79
2023/07/24 06:01:57;;;;;;;12.30;7.00;;;17.40;84.60;;;;;;5029103;28;20052;-78
2023/07/24 06:04:24;;;;;;;10.93;6.55;;;17.50;84.60;;;;;;5063269;28;20595;-79
2023/07/24 06:06:51;;;;;;;12.03;6.83;;;17.50;84.50;;;;;;5047325;28;20517;-78
2023/07/24 06:09:18;;;;;;;12.52;7.25;;;17.50;84.60;;;;;;5044056;28;20272;-78
2023/07/24 06:11:45;;;;;;;10.75;6.70;;;17.50;84.60;;;;;;5080385;28;20049;-79
2023/07/24 06:14:12;;;;;;;11.93;6.95;;;17.50;84.50;;;;;;5045795;28;20054;-79
2023/07/24 06:16:39;;;;;;;11.73;7.15;;;17.50;84.50;;;;;;5046931;28;20078;-79
2023/07/24 06:19:08;;;;;;;11.57;7.20;;;17.50;84.70;;;;;;5046545;28;20080;-80
2023/07/24 06:21:34;;;;;;;10.70;6.40;;;17.50;84.70;;;;;;5048121;28;20260;-80
2023/07/24 06:24:02;;;;;;;13.88;7.22;;;17.50;84.70;;;;;;5046599;28;20612;-80
2023/07/24 06:26:29;;;;;;;12.18;6.75;;;17.50;84.80;;;;;;5047645;28;20463;-77
2023/07/24 06:28:56;;;;;;;11.00;7.20;;;17.50;84.80;;;;;;5044718;28;20064;-79
2023/07/24 06:31:23;;;;;;;11.97;6.93;;;17.60;84.80;;;;;;5045552;28;20050;-79
2023/07/24 06:33:50;;;;;;;11.48;7.20;;;17.60;84.80;;;;;;5045903;28;20869;-80
2023/07/24 06:36:18;;;;;;;12.10;6.50;;;17.60;84.90;;;;;;5048107;28;20103;-79
2023/07/24 06:38:47;;;;;;;12.18;7.57;;;17.70;84.70;;;;;;5049959;28;20220;-78
2023/07/24 06:41:15;;;;;;;10.98;7.30;;;17.80;84.70;;;;;;5044883;28;20112;-80
2023/07/24 06:43:42;;;;;;;12.37;7.27;;;17.80;84.70;;;;;;5046122;28;21241;-79
2023/07/24 06:46:09;;;;;;;11.55;7.00;;;17.80;84.70;;;;;;5046440;28;20302;-79
2023/07/24 06:48:36;;;;;;;13.02;6.85;;;17.80;84.60;;;;;;5046519;28;20049;-80
2023/07/24 06:51:03;;;;;;;12.70;6.93;;;17.80;84.50;;;;;;5029347;28;20144;-80
2023/07/24 06:53:31;;;;;;;12.10;7.20;;;17.90;84.50;;;;;;5048036;28;20052;-79
2023/07/24 06:55:58;;;;;;;13.33;6.97;;;18.00;84.40;;;;;;5063251;28;20057;-79
2023/07/24 06:58:25;;;;;;;11.98;6.53;;;18.00;84.00;;;;;;5045632;28;20699;-81
2023/07/24 07:00:52;;;;;;;12.32;6.60;;;18.00;83.80;;;;;;5046534;28;20049;-79
2023/07/24 07:03:20;;;;;;;13.52;7.18;;;18.00;83.70;;;;;;5055408;28;20241;-79
2023/07/24 07:05:47;;;;;;;12.38;6.55;;;18.00;83.80;;;;;;5050558;28;20068;-79
2023/07/24 07:08:14;;;;;;;11.37;7.27;;;18.00;83.20;;;;;;5051342;28;20054;-79
2023/07/24 07:10:42;;;;;;;10.57;5.50;;;18.10;83.50;;;;;;5050917;28;20358;-79
2023/07/24 07:13:09;;;;;;;12.68;6.03;;;18.10;83.40;;;;;;5058987;28;20045;-79
2023/07/24 07:15:36;;;;;;;11.45;6.45;;;18.10;83.50;;;;;;5050581;28;20056;-79
2023/07/24 07:18:03;;;;;;;11.98;7.20;;;18.10;83.30;;;;;;5044963;28;20152;-79
2023/07/24 07:20:30;;;;;;;10.97;6.03;;;18.20;82.80;;;;;;5053241;28;20475;-80
2023/07/24 07:22:57;;;;;;;10.70;5.72;;;18.10;82.60;;;;;;5053638;28;20276;-79
2023/07/24 07:25:24;;;;;;;11.52;5.68;;;18.20;82.70;;;;;;5060178;28;20315;-79
2023/07/24 07:27:52;;;;;;;15.27;6.50;;;18.20;82.80;;;;;;5056391;28;20053;-79
2023/07/24 07:30:19;;;;;;;11.95;6.78;;;18.20;82.90;;;;;;5054011;28;20169;-80
2023/07/24 07:32:49;;;;;;;13.20;6.97;;;18.20;83.10;;;;;;5051289;28;20049;-79
2023/07/24 07:35:16;;;;;;;10.35;6.07;;;18.20;83.00;;;;;;5054600;28;20338;-80
2023/07/24 07:37:43;;;;;;;11.65;6.20;;;18.20;83.00;;;;;;5082772;28;20439;-80
2023/07/24 07:40:11;;;;;;;16.40;6.90;;;18.30;82.90;;;;;;5055980;28;20054;-79
2023/07/24 07:42:38;;;;;;;11.27;5.07;;;18.30;82.90;;;;;;5052236;28;20072;-79
2023/07/24 07:45:07;;;;;;;9.87;5.37;;;18.30;82.80;;;;;;5049918;28;20050;-79
2023/07/24 07:47:34;;;;;;;12.63;5.90;;;18.30;82.40;;;;;;5059017;28;20272;-79
2023/07/24 07:50:02;;;;;;;11.43;5.20;;;18.40;82.70;;;;;;5082157;28;20064;-79
2023/07/24 07:52:29;;;;;;;12.02;5.82;;;18.40;82.50;;;;;;5060790;28;20511;-80
2023/07/24 07:54:56;;;;;;;11.43;5.90;;;18.40;82.50;;;;;;5055242;28;20047;-80
2023/07/24 07:57:23;;;;;;;11.13;5.43;;;18.40;82.40;;;;;;5061269;28;20057;-80
2023/07/24 07:59:50;;;;;;;13.45;5.45;;;18.50;82.40;;;;;;5051943;28;20304;-80
2023/07/24 08:02:18;;;;;;;8.18;4.20;;;18.50;82.00;;;;;;5032920;28;20232;-80
2023/07/24 08:04:45;;;;;;;11.15;5.80;;;18.50;81.10;;;;;;5045596;28;20141;-80
2023/07/24 08:07:12;;;;;;;12.10;5.90;;;18.60;81.30;;;;;;5074877;28;20045;-80
2023/07/24 08:09:39;;;;;;;12.93;5.40;;;18.60;81.60;;;;;;5045010;28;20046;-80
2023/07/24 08:12:07;;;;;;;10.13;5.30;;;18.60;81.50;;;;;;5048922;28;20253;-80
2023/07/24 08:14:34;;;;;;;12.63;5.53;;;18.60;81.70;;;;;;5078393;28;20145;-80
2023/07/24 08:17:01;;;;;;;12.88;5.30;;;18.60;81.80;;;;;;5044622;28;20113;-80
2023/07/24 08:19:30;;;;;;;12.43;4.40;;;18.70;81.30;;;;;;5080231;28;20050;-80
2023/07/24 08:21:57;;;;;;;10.17;4.67;;;18.70;80.70;;;;;;5058839;28;20547;-80
2023/07/24 08:24:24;;;;;;;10.25;4.70;;;18.80;80.70;;;;;;5048867;28;20363;-80
2023/07/24 08:26:51;;;;;;;9.15;3.70;;;18.80;80.90;;;;;;5047631;28;20064;-79
2023/07/24 08:29:18;;;;;;;10.85;4.82;;;18.80;81.10;;;;;;5045119;28;20049;-79
2023/07/24 08:31:45;;;;;;;12.70;5.50;;;18.80;81.20;;;;;;5046697;28;20054;-79
2023/07/24 08:34:13;;;;;;;12.03;5.13;;;18.80;81.00;;;;;;5047567;28;20053;-80
2023/07/24 08:36:41;;;;;;;10.95;5.72;;;18.90;80.20;;;;;;5045162;28;20249;-79
2023/07/24 08:39:08;;;;;;;11.57;5.65;;;18.90;79.80;;;;;;5048947;28;20065;-80
2023/07/24 08:41:37;;;;;;;9.32;5.10;;;18.90;79.70;;;;;;5047562;28;20133;-80
2023/07/24 08:44:06;;;;;;;13.25;5.00;;;18.90;79.40;;;;;;5050788;28;20443;-79
2023/07/24 08:46:36;;;;;;;10.87;5.50;;;18.90;79.70;;;;;;5050779;28;20109;-79
2023/07/24 08:49:04;;;;;;;11.07;5.68;;;18.90;79.80;;;;;;5052150;28;20268;-79
2023/07/24 08:51:32;;;;;;;13.32;5.55;;;18.90;79.70;;;;;;5034128;28;20048;-79
2023/07/24 08:54:02;;;;;;;11.13;5.68;;;19.00;79.50;;;;;;5050576;28;20050;-78
2023/07/24 08:56:29;;;;;;;12.55;5.30;;;19.00;79.20;;;;;;5051551;28;20049;-78
2023/07/24 08:58:56;;;;;;;9.57;4.43;;;19.10;79.20;;;;;;5058728;28;20045;-80
2023/07/24 09:01:23;;;;;;;10.00;5.20;;;19.10;79.40;;;;;;5057093;28;20279;-80
2023/07/24 09:03:50;;;;;;;13.13;5.70;;;19.10;79.50;;;;;;5059986;28;20057;-80
2023/07/24 09:06:17;;;;;;;8.10;3.08;;;19.10;79.40;;;;;;5058312;28;20118;-80
2023/07/24 09:08:45;;;;;;;11.63;5.38;;;19.20;79.20;;;;;;5059904;28;20072;-80
2023/07/24 09:11:15;;;;;;;12.47;5.53;;;19.20;79.00;;;;;;5054835;28;20684;-80
2023/07/24 09:13:43;;;;;;;11.38;5.10;;;19.20;79.40;;;;;;5031234;28;20335;-80
2023/07/24 09:16:10;;;;;;;10.75;4.82;;;19.30;79.00;;;;;;5077743;28;20089;-80
2023/07/24 09:18:41;;;;;;;9.48;5.80;;;19.30;79.00;;;;;;5053722;28;20056;-81
2023/07/24 09:21:08;;;;;;;11.23;5.50;;;19.40;78.50;;;;;;5054939;28;20136;-81
2023/07/24 09:23:35;;;;;;;11.57;5.47;;;19.50;78.60;;;;;;5042416;28;20049;-80
2023/07/24 09:26:07;;;;;;;11.30;5.82;;;19.50;79.00;;;;;;5047815;28;20252;-80
2023/07/24 09:28:35;;;;;;;9.60;4.90;;;19.50;79.40;;;;;;5045391;28;20060;-80
2023/07/24 09:31:03;;;;;;;11.88;4.97;;;19.60;77.70;;;;;;5048343;28;20052;-80
2023/07/24 09:33:36;;;;;;;10.88;5.50;;;19.70;77.20;;;;;;5044296;28;20049;-80
2023/07/24 09:36:07;;;;;;;8.10;3.97;;;19.70;76.90;;;;;;5044335;28;20574;-81
2023/07/24 09:38:34;;;;;;;10.18;5.03;;;19.70;76.20;;;;;;5049550;28;20256;-80
2023/07/24 09:41:02;;;;;;;11.95;5.18;;;19.70;76.00;;;;;;5052310;28;20049;-80
2023/07/24 09:43:30;;;;;;;10.95;4.60;;;19.70;76.30;;;;;;5051326;28;20048;-80
2023/07/24 09:45:59;;;;;;;7.43;4.25;;;19.70;76.70;;;;;;5048097;28;20084;-80
2023/07/24 09:48:27;;;;;;;9.70;4.07;;;19.70;76.50;;;;;;5046920;28;20045;-79
2023/07/24 09:50:56;;;;;;;10.60;4.53;;;19.70;76.30;;;;;;5046191;28;20574;-79
2023/07/24 09:53:28;;;;;;;10.13;4.00;;;19.80;76.00;;;;;;5048395;28;20088;-79
2023/07/24 09:55:58;;;;;;;10.88;5.22;;;19.80;76.00;;;;;;5025758;28;20056;-79
2023/07/24 09:58:25;;;;;;;9.93;5.43;;;19.90;75.40;;;;;;5060203;28;20212;-79
2023/07/24 10:00:53;;;;;;;9.40;4.57;;;19.90;75.40;;;;;;5080508;28;20136;-79
2023/07/24 10:03:23;;;;;;;10.32;4.90;;;19.90;75.40;;;;;;5047740;28;20283;-79
2023/07/24 10:05:51;;;;;;;11.88;5.78;;;19.90;75.70;;;;;;5050206;28;20045;-80
2023/07/24 10:08:19;;;;;;;8.68;5.05;;;20.00;75.60;;;;;;5061735;28;20052;-80
2023/07/24 10:10:46;;;;;;;11.50;5.57;;;20.00;76.10;;;;;;5059231;28;20046;-80
2023/07/24 10:13:15;;;;;;;10.03;4.70;;;20.00;76.00;;;;;;5055701;28;20087;-79
2023/07/24 10:15:43;;;;;;;8.57;4.72;;;20.00;76.00;;;;;;5053550;28;20268;-79
2023/07/24 10:18:11;;;;;;;9.68;5.00;;;20.00;74.70;;;;;;5052106;28;20050;-79
2023/07/24 10:20:41;;;;;;;12.00;5.85;;;20.10;74.20;;;;;;5052481;28;20362;-79
2023/07/24 10:23:09;;;;;;;11.32;4.60;;;20.10;75.00;;;;;;5055116;28;20077;-79
2023/07/24 10:25:40;;;;;;;9.20;4.50;;;20.10;75.40;;;;;;5048246;28;20045;-79
2023/07/24 10:28:10;;;;;;;12.50;5.53;;;20.30;74.70;;;;;;5039256;28;20260;-80
2023/07/24 10:30:38;;;;;;;7.95;4.35;;;20.30;74.70;;;;;;5045928;28;20140;-80
2023/07/24 10:33:06;;;;;;;11.25;5.72;;;20.30;74.40;;;;;;5050512;28;20047;-80
2023/07/24 10:35:40;;;;;;;11.48;5.90;;;20.40;74.60;;;;;;5057547;28;20415;-78
2023/07/24 10:38:07;;;;;;;11.33;5.90;;;20.50;74.90;;;;;;5050137;28;20088;-79
2023/07/24 10:40:34;;;;;;;10.65;5.72;;;20.50;74.40;;;;;;5047251;28;20260;-79
2023/07/24 10:43:05;;;;;;;10.15;5.25;;;20.50;74.50;;;;;;5051970;28;20246;-79
2023/07/24 10:45:43;;;;;;;10.13;4.90;;;20.60;74.90;;;;;;5063001;28;20136;-80
2023/07/24 10:48:11;;;;;;;8.35;5.13;;;20.70;73.50;;;;;;5059509;28;20490;-80
2023/07/24 10:50:41;;;;;;;12.43;5.20;;;20.70;73.80;;;;;;5047340;28;20420;-80
2023/07/24 10:53:09;;;;;;;8.23;4.70;;;20.80;71.90;;;;;;5084624;28;20323;-80
2023/07/24 10:55:36;;;;;;;9.75;4.90;;;20.90;71.90;;;;;;5049469;28;20049;-81
2023/07/24 10:58:03;;;;;;;7.85;4.65;;;20.90;71.70;;;;;;5046948;28;20057;-81
2023/07/24 11:00:30;;;;;;;7.32;3.63;;;20.90;71.80;;;;;;5051094;28;20108;-80
2023/07/24 11:03:00;;;;;;;8.90;5.20;;;21.00;71.70;;;;;;5056614;28;20063;-80
2023/07/24 11:05:27;;;;;;;9.77;5.93;;;21.00;70.40;;;;;;5084571;28;20277;-80
2023/07/24 11:07:56;;;;;;;10.18;5.13;;;21.00;70.60;;;;;;5052798;28;20104;-80
2023/07/24 11:10:24;;;;;;;10.25;5.45;;;21.00;70.10;;;;;;5034286;28;20046;-80
2023/07/24 11:12:51;;;;;;;8.07;4.95;;;20.90;69.60;;;;;;5052015;28;20496;-80
2023/07/24 11:15:26;;;;;;;10.50;5.43;;;20.90;69.70;;;;;;5049724;28;20088;-80
2023/07/24 11:17:53;;;;;;;10.77;4.20;;;20.90;70.20;;;;;;5052022;28;20367;-80
2023/07/24 11:20:20;;;;;;;8.77;3.80;;;20.80;71.00;;;;;;5057198;28;20132;-80
2023/07/24 11:22:47;;;;;;;8.18;3.50;;;20.80;70.70;;;;;;5081549;28;20585;-80
2023/07/24 11:25:16;;;;;;;7.28;3.92;;;20.70;70.30;;;;;;5035061;28;20569;-80
2023/07/24 11:27:44;;;;;;;10.13;4.90;;;20.60;70.70;;;;;;5058010;28;20053;-79
2023/07/24 11:30:12;;;;;;;8.93;4.68;;;20.50;70.90;;;;;;5049858;28;20742;-80
2023/07/24 11:32:41;;;;;;;10.80;5.82;;;20.50;71.70;;;;;;5045560;28;20053;-79
2023/07/24 11:35:09;;;;;;;10.15;6.25;;;20.40;72.30;;;;;;5046024;28;20057;-80
2023/07/24 11:37:37;;;;;;;10.52;5.22;;;20.40;72.90;;;;;;5054508;28;20053;-79
2023/07/24 11:40:09;;;;;;;12.20;6.20;;;20.40;72.90;;;;;;5059104;28;20049;-79
2023/07/24 11:42:40;;;;;;;10.60;5.35;;;20.40;73.50;;;;;;5046132;28;20277;-79
2023/07/24 11:45:10;;;;;;;9.88;5.43;;;20.50;73.40;;;;;;5046320;28;20045;-79
2023/07/24 11:47:47;;;;;;;10.35;5.68;;;20.50;73.20;;;;;;5052103;28;20168;-80
2023/07/24 11:50:15;;;;;;;12.75;5.80;;;20.50;73.00;;;;;;5049118;28;20595;-79
2023/07/24 11:52:44;;;;;;;12.60;6.80;;;20.50;72.90;;;;;;5049383;28;20049;-81
2023/07/24 11:55:12;;;;;;;12.63;6.55;;;20.60;73.10;;;;;;5049006;28;20614;-80
2023/07/24 11:57:41;;;;;;;11.70;6.38;;;20.60;72.20;;;;;;5048592;28;20664;-80
2023/07/24 12:00:20;;;;;;;10.35;5.90;;;20.60;72.70;;;;;;5049410;28;20042;-80
2023/07/24 12:02:47;;;;;;;11.10;5.75;;;20.70;72.10;;;;;;5048706;28;20104;-80
2023/07/24 12:05:14;;;;;;;9.37;5.33;;;20.70;71.90;;;;;;5049643;28;20049;-80
2023/07/24 12:07:44;;;;;;;8.80;5.35;;;20.80;71.20;;;;;;5048855;28;20261;-79
2023/07/24 12:10:13;;;;;;;9.52;4.53;;;20.90;70.60;;;;;;5083533;28;20528;-80
2023/07/24 12:12:45;;;;;;;9.30;5.43;;;20.90;70.60;;;;;;5068670;28;20077;-80
2023/07/24 12:15:13;;;;;;;10.63;5.60;;;21.00;70.50;;;;;;5055516;28;20041;-80
2023/07/24 12:17:40;;;;;;;8.33;4.90;;;21.10;69.80;;;;;;5051615;28;20136;-80
2023/07/24 12:20:10;;;;;;;11.65;5.97;;;21.10;70.10;;;;;;5058330;28;20875;-79
2023/07/24 12:22:37;;;;;;;10.60;6.10;;;21.30;69.30;;;;;;5067145;28;20095;-80
2023/07/24 12:25:05;;;;;;;8.55;5.50;;;21.30;69.10;;;;;;5059237;28;20057;-79
2023/07/24 12:27:32;;;;;;;9.70;5.38;;;21.30;68.70;;;;;;5038397;28;20072;-81
2023/07/24 12:30:01;;;;;;;8.33;5.03;;;21.40;67.90;;;;;;5057482;28;20045;-79
2023/07/24 12:32:28;;;;;;;11.10;5.53;;;21.40;67.20;;;;;;5061780;28;20292;-78
2023/07/24 12:34:55;;;;;;;10.02;3.85;;;21.40;67.80;;;;;;5043066;28;20067;-80
2023/07/24 12:37:22;;;;;;;11.63;6.20;;;21.40;68.50;;;;;;5058090;28;20136;-80
2023/07/24 12:39:50;;;;;;;10.07;5.93;;;21.40;68.60;;;;;;5046174;28;20133;-80
2023/07/24 12:45:15;;;;;;;9.40;5.28;;;21.40;67.90;;;;;;5065745;28;20249;-81